Time;durP1;ratioP1;P1;durP2;ratioP2;P2;SDS_P1;SDS_P2;PMS_P1;PMS_P2;Temp;Humidity;BMP_temperature;BMP_pressure;BME280_temperature;BME280_humidity;BME280_pressure;Samples;Min_cycle;Max_cycle;Signal;HPM_P1;HPM_P2
2022/03/08 05:02:23;;;;;;;25.23;13.13;;;-5.80;99.90;;;;;;5044985;23;96451;-73
2022/03/08 05:04:49;;;;;;;23.88;13.20;;;-5.80;99.90;;;;;;4958483;28;94476;-73
2022/03/08 05:07:15;;;;;;;21.30;12.20;;;-5.70;99.90;;;;;;4958710;28;93759;-73
2022/03/08 05:09:40;;;;;;;23.98;13.18;;;-5.70;99.90;;;;;;4939951;28;98244;-73
2022/03/08 05:12:08;;;;;;;24.77;13.10;;;-5.80;99.90;;;;;;4958005;28;94754;-73
2022/03/08 05:14:34;;;;;;;25.38;12.55;;;-5.90;99.90;;;;;;4972088;22;95442;-76
2022/03/08 05:17:00;;;;;;;24.33;12.32;;;-5.90;99.90;;;;;;4940276;28;94530;-76
2022/03/08 05:19:26;;;;;;;27.88;14.18;;;-5.80;99.90;;;;;;4939832;28;97785;-76
2022/03/08 05:21:51;;;;;;;24.42;12.05;;;-5.80;99.90;;;;;;4957999;28;95001;-76
2022/03/08 05:24:17;;;;;;;25.33;13.40;;;-5.90;99.90;;;;;;4940413;28;94564;-76
2022/03/08 05:26:43;;;;;;;25.02;13.40;;;-5.80;99.90;;;;;;4958054;28;94529;-76
2022/03/08 05:29:09;;;;;;;23.52;12.40;;;-5.80;99.90;;;;;;4959420;28;96256;-75
2022/03/08 05:31:35;;;;;;;24.67;13.48;;;-5.80;99.90;;;;;;4958220;28;94381;-75
2022/03/08 05:34:01;;;;;;;30.33;13.60;;;-5.90;99.90;;;;;;4940049;28;94542;-75
2022/03/08 05:36:27;;;;;;;29.55;14.82;;;-5.90;99.90;;;;;;4940130;28;94546;-75
2022/03/08 05:38:52;;;;;;;30.17;16.23;;;-5.90;99.90;;;;;;4939355;28;98943;-75
2022/03/08 05:41:18;;;;;;;36.80;16.42;;;-5.90;99.90;;;;;;4939846;28;98046;-75
2022/03/08 05:43:45;;;;;;;31.98;14.93;;;-5.80;99.90;;;;;;4957694;28;94422;-75
2022/03/08 05:46:10;;;;;;;27.33;14.75;;;-5.80;99.90;;;;;;4939273;28;94512;-75
2022/03/08 05:48:36;;;;;;;25.98;13.93;;;-5.80;99.90;;;;;;4939564;28;98435;-75
2022/03/08 05:51:02;;;;;;;28.42;13.48;;;-5.80;99.90;;;;;;4957589;28;94370;-75
2022/03/08 05:53:28;;;;;;;23.13;12.60;;;-5.80;99.90;;;;;;4957558;28;94387;-75
2022/03/08 05:55:54;;;;;;;32.38;14.38;;;-5.90;99.90;;;;;;4957535;28;93618;-75
2022/03/08 05:58:19;;;;;;;34.47;15.20;;;-5.90;99.90;;;;;;4957142;28;96177;-75
2022/03/08 06:00:45;;;;;;;35.42;18.40;;;-5.80;99.90;;;;;;4957059;28;94385;-75
2022/03/08 06:03:10;;;;;;;29.38;15.90;;;-5.70;99.90;;;;;;4957025;28;95638;-75
2022/03/08 06:05:36;;;;;;;28.23;14.82;;;-5.60;99.90;;;;;;4957270;28;94391;-75
2022/03/08 06:08:03;;;;;;;31.27;15.23;;;-5.60;99.90;;;;;;4939149;28;97336;-75
2022/03/08 06:10:29;;;;;;;27.17;13.85;;;-5.50;99.90;;;;;;4955200;28;95510;-75
2022/03/08 06:12:55;;;;;;;24.98;13.65;;;-5.30;99.90;;;;;;4939682;28;94523;-75
2022/03/08 06:15:20;;;;;;;27.48;13.57;;;-5.00;99.90;;;;;;4938649;28;94475;-75
2022/03/08 06:17:46;;;;;;;29.90;14.38;;;-4.90;99.90;;;;;;4939086;28;98042;-75
2022/03/08 06:20:11;;;;;;;26.70;12.95;;;-4.70;99.90;;;;;;4939320;28;96848;-75
2022/03/08 06:22:38;;;;;;;30.13;12.90;;;-4.40;99.90;;;;;;4939302;28;94427;-75
2022/03/08 06:25:04;;;;;;;27.20;13.25;;;-4.20;99.90;;;;;;4939040;28;94415;-75
2022/03/08 06:27:29;;;;;;;25.30;13.00;;;-3.90;99.90;;;;;;4956351;28;98139;-75
2022/03/08 06:29:56;;;;;;;22.83;13.30;;;-3.80;99.90;;;;;;4938801;28;97840;-75
2022/03/08 06:32:21;;;;;;;24.63;13.48;;;-3.60;99.90;;;;;;4939508;28;94864;-76
2022/03/08 06:34:47;;;;;;;24.67;12.82;;;-3.50;99.90;;;;;;4938956;28;94623;-76
2022/03/08 06:37:13;;;;;;;26.15;12.80;;;-3.40;99.90;;;;;;4956824;28;94562;-76
2022/03/08 06:39:38;;;;;;;25.88;13.55;;;-3.30;99.90;;;;;;4956477;28;95008;-75
2022/03/08 06:42:04;;;;;;;22.05;12.77;;;-3.30;99.90;;;;;;4957077;28;94436;-76
2022/03/08 06:44:31;;;;;;;27.27;13.02;;;-3.30;99.90;;;;;;4938608;28;93752;-76
2022/03/08 06:46:58;;;;;;;23.50;12.90;;;-3.30;99.90;;;;;;4956528;28;95522;-76
2022/03/08 06:49:24;;;;;;;25.45;13.70;;;-3.30;99.90;;;;;;4938386;28;97989;-76
2022/03/08 06:51:51;;;;;;;23.83;12.65;;;-3.30;99.90;;;;;;4955916;28;95313;-75
2022/03/08 06:54:17;;;;;;;19.67;11.98;;;-3.30;99.90;;;;;;4956851;28;94496;-74
2022/03/08 06:56:42;;;;;;;25.10;12.07;;;-3.30;99.90;;;;;;4956789;28;96705;-75
2022/03/08 06:59:08;;;;;;;22.98;12.07;;;-3.30;99.90;;;;;;4938424;28;98177;-74
2022/03/08 07:01:33;;;;;;;23.33;12.20;;;-3.30;99.90;;;;;;4938985;28;94602;-76
2022/03/08 07:03:59;;;;;;;24.23;12.63;;;-3.30;99.90;;;;;;4938738;28;94522;-76
2022/03/08 07:06:25;;;;;;;21.10;12.55;;;-3.30;99.90;;;;;;4955570;28;95521;-76
2022/03/08 07:08:51;;;;;;;24.58;12.65;;;-3.30;99.90;;;;;;4938436;28;97317;-76
2022/03/08 07:11:16;;;;;;;18.60;11.70;;;-3.10;99.90;;;;;;4938656;28;94540;-76
2022/03/08 07:13:42;;;;;;;22.23;12.30;;;-3.10;99.90;;;;;;4938898;28;94597;-76
2022/03/08 07:16:08;;;;;;;22.73;13.50;;;-3.00;99.90;;;;;;4937004;28;98502;-76
2022/03/08 07:18:33;;;;;;;20.52;12.00;;;-2.90;99.90;;;;;;4943165;28;97647;-76
2022/03/08 07:21:03;;;;;;;20.58;11.73;;;-2.80;99.90;;;;;;4965788;28;94375;-75
2022/03/08 07:23:29;;;;;;;20.98;12.68;;;-2.70;99.90;;;;;;4940759;28;95256;-75
2022/03/08 07:25:55;;;;;;;23.23;12.55;;;-2.60;99.90;;;;;;4938408;28;97858;-75
2022/03/08 07:28:26;;;;;;;22.60;12.88;;;-2.50;99.90;;;;;;4955820;28;94990;-75
2022/03/08 07:30:52;;;;;;;20.63;11.88;;;-2.40;99.90;;;;;;4956589;28;94498;-76
2022/03/08 07:33:18;;;;;;;20.15;12.23;;;-2.20;99.90;;;;;;4956550;28;94071;-76
2022/03/08 07:35:43;;;;;;;18.85;11.82;;;-2.20;99.90;;;;;;4937873;28;97804;-76
2022/03/08 07:38:12;;;;;;;19.83;12.00;;;-2.10;99.90;;;;;;4938030;28;96398;-76
2022/03/08 07:40:42;;;;;;;21.67;12.57;;;-2.00;99.90;;;;;;4937477;28;95395;-76
2022/03/08 07:43:08;;;;;;;20.98;12.55;;;-2.00;99.90;;;;;;4955748;28;94566;-76
2022/03/08 07:45:35;;;;;;;25.10;13.18;;;-1.90;99.90;;;;;;4955730;28;94506;-76
2022/03/08 07:48:01;;;;;;;22.20;13.55;;;-1.70;99.90;;;;;;4937421;28;96439;-77
2022/03/08 07:50:36;;;;;;;22.55;12.30;;;-1.60;99.90;;;;;;4937877;28;94599;-77
2022/03/08 07:53:03;;;;;;;22.98;11.65;;;-1.50;99.90;;;;;;4937942;28;94608;-77
2022/03/08 07:55:32;;;;;;;21.67;11.68;;;-1.40;99.90;;;;;;4937392;28;96908;-77
2022/03/08 07:57:59;;;;;;;19.10;11.38;;;-1.40;99.90;;;;;;4938197;28;97909;-77
2022/03/08 08:00:28;;;;;;;18.67;12.20;;;-1.20;99.90;;;;;;4954780;28;94521;-77
2022/03/08 08:03:03;;;;;;;19.48;11.30;;;-1.10;99.90;;;;;;4937706;28;94467;-75
2022/03/08 08:05:29;;;;;;;17.52;10.93;;;-1.00;99.90;;;;;;4955355;28;95690;-76
2022/03/08 08:07:54;;;;;;;19.42;11.30;;;-0.90;99.90;;;;;;4955835;28;97504;-76
2022/03/08 08:10:20;;;;;;;21.88;11.52;;;-0.80;99.90;;;;;;4956529;28;94460;-76
2022/03/08 08:12:46;;;;;;;20.27;11.93;;;-0.60;99.90;;;;;;4956193;28;94347;-76
2022/03/08 08:15:11;;;;;;;22.05;12.00;;;-0.50;99.90;;;;;;4937284;28;97767;-76
2022/03/08 08:17:37;;;;;;;18.15;11.02;;;-0.30;99.90;;;;;;4955217;28;96417;-77
2022/03/08 08:20:06;;;;;;;24.17;11.88;;;-0.20;99.90;;;;;;4955297;28;94611;-78
2022/03/08 08:22:32;;;;;;;20.75;11.48;;;-0.10;99.90;;;;;;4937879;28;93596;-76
2022/03/08 08:25:00;;;;;;;20.75;11.65;;;0.10;99.90;;;;;;4939049;28;97473;-77
2022/03/08 08:27:25;;;;;;;20.63;12.18;;;0.20;99.90;;;;;;4955760;28;95057;-78
2022/03/08 08:29:51;;;;;;;17.83;11.60;;;0.40;99.90;;;;;;4936904;28;95395;-77
2022/03/08 08:32:20;;;;;;;17.45;10.88;;;0.50;99.90;;;;;;4954511;28;94607;-77
2022/03/08 08:34:45;;;;;;;16.48;10.35;;;0.70;99.90;;;;;;4954908;28;95597;-76
2022/03/08 08:37:12;;;;;;;22.55;11.05;;;1.00;99.90;;;;;;4937182;28;96177;-76
2022/03/08 08:39:38;;;;;;;19.65;11.13;;;1.10;99.90;;;;;;4956742;28;94724;-78
2022/03/08 08:42:04;;;;;;;16.88;10.55;;;1.20;99.90;;;;;;4940656;28;94504;-78
2022/03/08 08:44:30;;;;;;;16.05;10.45;;;1.40;99.90;;;;;;4937549;28;97550;-75
2022/03/08 08:46:55;;;;;;;16.67;9.73;;;1.60;99.90;;;;;;4937309;28;96381;-76
2022/03/08 08:49:25;;;;;;;17.73;9.77;;;1.90;99.90;;;;;;4937974;28;94369;-77
2022/03/08 08:51:51;;;;;;;17.92;10.45;;;2.00;99.70;;;;;;4938021;28;94585;-76
2022/03/08 08:54:16;;;;;;;15.38;10.38;;;2.30;99.20;;;;;;4936216;28;99286;-76
2022/03/08 08:56:42;;;;;;;14.68;9.63;;;2.50;98.80;;;;;;4937110;28;98538;-75
2022/03/08 08:59:08;;;;;;;17.33;10.05;;;2.60;98.30;;;;;;4955301;28;94482;-77
2022/03/08 09:01:34;;;;;;;14.70;9.63;;;2.80;98.20;;;;;;4955101;28;94841;-75
2022/03/08 09:03:59;;;;;;;15.05;8.80;;;2.90;98.10;;;;;;4957164;28;95160;-75
2022/03/08 09:06:26;;;;;;;11.45;8.30;;;3.20;96.60;;;;;;4947011;28;96058;-75
2022/03/08 09:08:52;;;;;;;13.65;8.32;;;3.40;96.50;;;;;;4940867;28;94535;-75
2022/03/08 09:11:18;;;;;;;11.07;7.20;;;3.70;94.60;;;;;;4962313;28;93792;-76
2022/03/08 09:13:43;;;;;;;12.13;7.80;;;3.90;93.50;;;;;;4956967;28;95298;-76
2022/03/08 09:16:09;;;;;;;10.18;7.43;;;4.20;92.30;;;;;;4955527;28;94457;-76
2022/03/08 09:18:35;;;;;;;9.50;6.63;;;4.50;91.60;;;;;;4937717;28;95500;-75
2022/03/08 09:21:01;;;;;;;10.02;7.18;;;4.60;90.90;;;;;;4955877;28;94589;-75
2022/03/08 09:23:26;;;;;;;11.00;7.75;;;4.80;90.20;;;;;;4955529;28;94506;-75
2022/03/08 09:25:52;;;;;;;12.38;7.40;;;4.90;88.60;;;;;;4955415;28;94395;-76
2022/03/08 09:28:18;;;;;;;11.00;6.60;;;5.00;87.70;;;;;;4955691;28;94398;-75
2022/03/08 09:30:44;;;;;;;11.10;6.93;;;5.20;86.30;;;;;;4971723;28;94327;-74
2022/03/08 09:33:10;;;;;;;8.68;6.10;;;5.30;86.00;;;;;;4949507;28;97607;-77
2022/03/08 09:35:37;;;;;;;11.02;6.68;;;5.50;85.10;;;;;;4959227;28;95262;-76
2022/03/08 09:38:03;;;;;;;8.88;6.20;;;5.50;82.70;;;;;;4957436;28;94637;-77
2022/03/08 09:40:29;;;;;;;11.35;6.82;;;5.70;82.70;;;;;;4959647;28;94503;-77
2022/03/08 09:42:58;;;;;;;12.55;7.45;;;5.70;81.10;;;;;;4971225;28;96488;-78
2022/03/08 09:45:24;;;;;;;10.38;7.03;;;5.80;80.70;;;;;;4950796;28;96989;-78
2022/03/08 09:47:49;;;;;;;7.60;5.70;;;6.00;80.50;;;;;;4958210;28;94340;-78
2022/03/08 09:50:16;;;;;;;7.05;5.32;;;6.20;78.90;;;;;;4940121;28;94777;-78
2022/03/08 09:52:42;;;;;;;10.25;5.70;;;6.30;77.70;;;;;;4957463;28;97502;-77
2022/03/08 09:55:17;;;;;;;8.32;5.93;;;6.40;77.50;;;;;;4942645;28;97051;-77
2022/03/08 09:57:44;;;;;;;8.05;5.60;;;6.60;77.30;;;;;;4941128;28;94608;-78
2022/03/08 10:00:10;;;;;;;8.85;5.45;;;6.70;75.60;;;;;;4958366;28;93672;-78
2022/03/08 10:02:56;;;;;;;7.45;5.38;;;6.70;75.60;;;;;;4958538;28;95380;-77
2022/03/08 10:05:25;;;;;;;6.65;4.80;;;6.70;74.20;;;;;;4941508;28;95154;-77
2022/03/08 10:08:13;;;;;;;8.32;5.00;;;6.60;72.50;;;;;;4940590;28;95608;-77
2022/03/08 10:10:49;;;;;;;6.82;4.75;;;6.70;71.70;;;;;;4939899;28;94658;-77
2022/03/08 10:13:15;;;;;;;7.10;5.40;;;6.70;72.50;;;;;;4940764;28;98248;-78
2022/03/08 10:15:41;;;;;;;6.97;5.05;;;6.80;71.70;;;;;;4940446;28;97030;-78
2022/03/08 10:18:07;;;;;;;9.35;5.07;;;6.90;72.40;;;;;;4958358;28;94547;-77
2022/03/08 10:20:33;;;;;;;6.32;4.85;;;7.10;71.60;;;;;;4944409;28;94533;-77
2022/03/08 10:23:08;;;;;;;6.13;4.55;;;7.30;71.00;;;;;;4974829;28;94819;-76
2022/03/08 10:25:33;;;;;;;6.82;4.32;;;7.40;70.70;;;;;;4974094;28;94129;-78
2022/03/08 10:28:03;;;;;;;6.43;4.53;;;7.50;70.70;;;;;;4940510;28;94540;-77
2022/03/08 10:30:44;;;;;;;8.90;4.57;;;7.50;69.50;;;;;;4939380;28;94547;-77
2022/03/08 10:33:10;;;;;;;7.30;4.50;;;7.50;69.20;;;;;;4972795;28;95481;-77
2022/03/08 10:35:41;;;;;;;6.50;4.88;;;7.50;67.70;;;;;;4977318;28;95084;-77
2022/03/08 10:38:11;;;;;;;7.18;4.70;;;7.50;69.30;;;;;;4959511;28;94483;-77
2022/03/08 10:40:40;;;;;;;7.82;5.25;;;7.70;68.70;;;;;;4958589;28;94510;-77
2022/03/08 10:43:13;;;;;;;10.43;4.68;;;7.90;66.70;;;;;;4976676;28;94460;-77
2022/03/08 10:45:49;;;;;;;7.65;3.97;;;7.90;65.90;;;;;;4976537;28;96886;-76
2022/03/08 10:48:18;;;;;;;5.70;4.18;;;7.90;65.60;;;;;;4976862;28;94467;-76
2022/03/08 10:50:46;;;;;;;6.70;4.18;;;7.80;66.00;;;;;;4958731;28;93717;-77
2022/03/08 10:53:13;;;;;;;5.60;4.00;;;7.90;64.10;;;;;;4976453;28;98064;-76
2022/03/08 10:55:50;;;;;;;6.20;4.32;;;8.00;65.10;;;;;;4958061;28;96457;-76
2022/03/08 10:58:18;;;;;;;8.25;4.35;;;8.10;64.90;;;;;;4976609;28;95378;-77
2022/03/08 11:00:55;;;;;;;7.90;3.88;;;8.10;63.00;;;;;;4958387;28;94467;-77
2022/03/08 11:03:23;;;;;;;6.30;4.40;;;8.20;63.20;;;;;;4976779;28;95545;-77
2022/03/08 11:05:55;;;;;;;8.05;4.07;;;8.40;62.80;;;;;;4958679;28;95814;-77
2022/03/08 11:08:30;;;;;;;6.72;4.03;;;8.40;61.30;;;;;;4978162;28;94468;-77
2022/03/08 11:10:55;;;;;;;8.25;4.00;;;8.40;61.40;;;;;;4959613;28;94397;-77
2022/03/08 11:13:21;;;;;;;7.20;4.10;;;8.40;61.40;;;;;;4979071;28;95243;-76
2022/03/08 11:15:47;;;;;;;7.75;4.40;;;8.30;61.00;;;;;;4978173;28;94865;-77
2022/03/08 11:18:15;;;;;;;6.43;4.22;;;8.40;62.00;;;;;;4961067;28;94608;-77
2022/03/08 11:20:43;;;;;;;6.15;4.30;;;8.40;60.20;;;;;;4959960;28;94620;-77
2022/03/08 11:23:09;;;;;;;7.03;4.32;;;8.60;60.90;;;;;;4977529;28;96915;-77
2022/03/08 11:25:38;;;;;;;6.53;4.80;;;8.70;60.20;;;;;;4961696;28;97721;-77
2022/03/08 11:28:06;;;;;;;6.28;4.30;;;8.80;59.80;;;;;;4961728;28;94530;-77
2022/03/08 11:30:34;;;;;;;7.68;4.45;;;8.80;60.70;;;;;;4966310;23;94481;-74
2022/03/08 11:33:11;;;;;;;8.15;5.13;;;8.80;59.40;;;;;;4962198;28;95117;-74
2022/03/08 11:36:02;;;;;;;7.00;4.60;;;8.80;59.60;;;;;;4950290;28;94727;-74
2022/03/08 11:38:28;;;;;;;8.32;5.00;;;8.90;60.20;;;;;;4952181;28;94462;-74
2022/03/08 11:40:57;;;;;;;6.72;4.72;;;9.00;60.90;;;;;;4966527;28;93739;-74
2022/03/08 11:43:39;;;;;;;7.10;4.93;;;9.10;60.70;;;;;;4965313;28;95044;-74
2022/03/08 11:46:30;;;;;;;7.05;4.90;;;9.10;59.00;;;;;;4963253;28;95935;-74
2022/03/08 11:48:57;;;;;;;8.95;4.47;;;9.00;58.90;;;;;;4962792;28;95807;-75
2022/03/08 11:51:26;;;;;;;7.30;4.93;;;9.10;59.20;;;;;;4975234;28;94612;-74
2022/03/08 11:54:25;;;;;;;7.18;4.70;;;9.20;60.20;;;;;;4939295;28;94589;-74
2022/03/08 11:56:53;;;;;;;7.10;4.65;;;9.40;59.70;;;;;;4950211;28;95285;-74
2022/03/08 11:59:19;;;;;;;9.05;5.10;;;9.60;59.10;;;;;;4963642;28;94351;-74
2022/03/08 12:01:44;;;;;;;8.13;5.35;;;9.80;60.20;;;;;;4965678;28;94381;-74
2022/03/08 12:04:20;;;;;;;7.00;5.03;;;9.90;59.30;;;;;;4963989;28;95042;-75
2022/03/08 12:07:00;;;;;;;8.65;5.25;;;9.90;58.20;;;;;;4948421;28;97540;-74
2022/03/08 12:09:26;;;;;;;6.57;4.47;;;9.80;56.70;;;;;;4969857;28;95111;-76
2022/03/08 12:12:00;;;;;;;7.75;4.10;;;9.70;57.50;;;;;;4959265;28;94578;-75
2022/03/08 12:14:30;;;;;;;7.18;4.85;;;9.80;57.50;;;;;;4966507;28;96121;-75
2022/03/08 12:17:32;;;;;;;7.50;4.15;;;9.90;57.70;;;;;;4967541;28;94946;-76
2022/03/08 12:19:59;;;;;;;6.38;4.60;;;10.00;57.00;;;;;;4868883;28;94712;-74
2022/03/08 12:22:32;;;;;;;7.43;4.95;;;10.20;57.60;;;;;;4950914;28;94582;-76
2022/03/08 12:24:59;;;;;;;6.85;4.70;;;10.10;56.40;;;;;;4968082;28;95561;-75
2022/03/08 12:27:45;;;;;;;7.10;4.30;;;10.10;56.30;;;;;;4975733;28;95226;-75
2022/03/08 12:30:11;;;;;;;4.88;3.83;;;10.00;55.20;;;;;;4975974;28;94495;-75
2022/03/08 12:32:41;;;;;;;6.25;4.43;;;10.20;55.50;;;;;;4976316;28;93882;-76
2022/03/08 12:35:10;;;;;;;7.13;3.92;;;10.30;56.00;;;;;;4975043;28;98395;-75
2022/03/08 12:37:36;;;;;;;4.90;3.67;;;10.40;55.10;;;;;;4974985;28;97518;-75
2022/03/08 12:40:24;;;;;;;5.75;3.47;;;10.70;55.30;;;;;;4975260;28;95420;-75
2022/03/08 12:43:01;;;;;;;5.63;3.60;;;10.70;54.50;;;;;;4976637;28;94437;-77
2022/03/08 12:45:27;;;;;;;6.65;3.75;;;10.70;54.90;;;;;;4974687;28;97054;-78
2022/03/08 12:48:09;;;;;;;6.40;3.90;;;10.80;53.40;;;;;;4975055;28;97985;-77
2022/03/08 12:50:36;;;;;;;5.63;3.70;;;10.90;54.10;;;;;;4977924;28;94674;-76
2022/03/08 12:53:06;;;;;;;5.80;3.75;;;11.00;53.10;;;;;;4974801;28;94551;-77
2022/03/08 12:55:52;;;;;;;5.03;3.40;;;10.80;53.10;;;;;;4977122;28;94761;-76
2022/03/08 12:58:22;;;;;;;4.63;3.40;;;11.00;52.90;;;;;;4960560;28;97467;-77
2022/03/08 13:00:57;;;;;;;4.90;3.53;;;11.10;53.60;;;;;;4978498;28;94384;-76
2022/03/08 13:03:27;;;;;;;5.63;3.67;;;11.30;53.50;;;;;;4960323;28;94591;-76
2022/03/08 13:05:58;;;;;;;5.80;3.70;;;11.40;52.50;;;;;;4976941;28;97516;-77
2022/03/08 13:08:27;;;;;;;4.03;3.38;;;11.40;52.40;;;;;;4976603;28;96247;-77
2022/03/08 13:10:58;;;;;;;5.82;3.53;;;11.50;52.90;;;;;;4958247;28;94515;-77
2022/03/08 13:13:25;;;;;;;5.57;3.33;;;11.30;51.50;;;;;;4958886;28;94490;-76
2022/03/08 13:15:50;;;;;;;7.15;3.95;;;11.30;52.10;;;;;;4968767;28;94525;-78
2022/03/08 13:18:25;;;;;;;6.10;3.85;;;11.30;53.00;;;;;;4970372;28;95022;-78
2022/03/08 13:20:54;;;;;;;6.00;3.67;;;11.50;52.50;;;;;;4963987;28;94507;-78
2022/03/08 13:23:23;;;;;;;4.82;3.17;;;11.70;52.40;;;;;;4961422;28;93960;-78
2022/03/08 13:25:51;;;;;;;5.90;3.70;;;11.70;51.80;;;;;;4977455;28;94389;-78
2022/03/08 13:28:19;;;;;;;5.88;3.50;;;11.80;52.30;;;;;;4980960;28;95282;-79
2022/03/08 13:30:45;;;;;;;4.57;3.40;;;11.70;50.30;;;;;;4978590;28;96038;-77
2022/03/08 13:33:21;;;;;;;6.20;3.58;;;11.80;51.70;;;;;;4980476;28;94392;-77
2022/03/08 13:35:52;;;;;;;4.93;3.33;;;11.60;51.30;;;;;;4962455;28;98396;-78
2022/03/08 13:38:24;;;;;;;5.78;3.67;;;11.60;51.00;;;;;;4978330;28;95267;-77
2022/03/08 13:40:52;;;;;;;6.88;3.40;;;11.40;52.30;;;;;;4978221;28;94306;-77
2022/03/08 13:43:19;;;;;;;5.13;4.13;;;11.50;52.30;;;;;;4978227;28;94497;-78
2022/03/08 13:45:45;;;;;;;4.55;3.45;;;11.50;51.40;;;;;;4977787;28;95041;-77
2022/03/08 13:48:16;;;;;;;5.47;3.50;;;11.30;50.90;;;;;;4978189;28;94946;-78
2022/03/08 13:50:42;;;;;;;4.53;3.28;;;11.20;50.20;;;;;;4981028;28;94438;-77
2022/03/08 13:53:10;;;;;;;5.30;3.35;;;10.90;51.20;;;;;;4985301;28;94433;-77
2022/03/08 13:55:36;;;;;;;4.55;3.60;;;11.00;52.40;;;;;;4984771;28;98879;-77
2022/03/08 13:58:06;;;;;;;4.82;3.78;;;11.10;51.30;;;;;;4979903;28;94861;-77
2022/03/08 14:00:36;;;;;;;8.65;4.20;;;11.20;51.70;;;;;;4961842;28;94631;-77
2022/03/08 14:03:03;;;;;;;6.40;4.13;;;11.10;50.90;;;;;;4979508;28;94540;-77
2022/03/08 14:05:29;;;;;;;5.60;3.78;;;10.90;50.70;;;;;;4978293;28;95447;-77
2022/03/08 14:07:58;;;;;;;5.57;3.70;;;10.90;52.10;;;;;;4978363;28;94797;-78
2022/03/08 14:10:25;;;;;;;4.30;3.53;;;10.90;50.60;;;;;;4977787;28;94533;-77
2022/03/08 14:12:51;;;;;;;5.45;3.45;;;11.00;51.20;;;;;;4978024;28;93832;-77
2022/03/08 14:15:18;;;;;;;4.25;3.53;;;11.00;50.80;;;;;;4977537;28;95084;-77
2022/03/08 14:17:46;;;;;;;6.25;3.78;;;11.20;50.70;;;;;;4977512;28;94442;-78
2022/03/08 14:20:19;;;;;;;4.93;3.92;;;11.30;51.60;;;;;;4976975;28;95320;-77
2022/03/08 14:23:08;;;;;;;5.88;3.42;;;11.30;50.20;;;;;;4977483;28;94443;-77
2022/03/08 14:25:58;;;;;;;4.45;3.47;;;11.20;49.80;;;;;;4976959;28;94432;-77
2022/03/08 14:28:51;;;;;;;5.07;3.30;;;11.20;49.40;;;;;;4965128;28;94385;-77
2022/03/08 14:31:31;;;;;;;4.68;3.33;;;11.20;49.80;;;;;;4958195;28;94952;-78
2022/03/08 14:34:09;;;;;;;7.32;3.55;;;11.20;49.40;;;;;;4977022;28;94559;-77
2022/03/08 14:36:42;;;;;;;5.00;3.70;;;11.20;49.80;;;;;;4977198;28;94664;-77
2022/03/08 14:39:20;;;;;;;5.97;3.78;;;11.20;50.30;;;;;;4976958;28;95404;-76
2022/03/08 14:42:00;;;;;;;5.18;4.05;;;11.30;49.40;;;;;;4977692;28;94463;-76
2022/03/08 14:44:28;;;;;;;6.45;4.40;;;11.50;49.00;;;;;;4976278;28;94585;-77
2022/03/08 14:46:54;;;;;;;7.78;4.25;;;12.10;48.40;;;;;;4976238;28;95998;-76
2022/03/08 14:49:20;;;;;;;10.20;5.50;;;13.00;46.30;;;;;;4977028;28;96248;-76
2022/03/08 14:51:46;;;;;;;6.35;4.05;;;13.80;45.30;;;;;;4991233;28;94478;-77
2022/03/08 14:54:12;;;;;;;6.38;4.30;;;14.60;44.30;;;;;;4977379;28;94545;-78
2022/03/08 14:56:50;;;;;;;4.50;3.90;;;15.00;42.50;;;;;;4977015;28;95267;-76
2022/03/08 14:59:20;;;;;;;6.18;4.38;;;15.40;41.70;;;;;;4977861;28;94981;-76
2022/03/08 15:01:46;;;;;;;5.20;3.70;;;16.30;40.70;;;;;;4977323;28;94890;-77
2022/03/08 15:04:12;;;;;;;5.28;4.18;;;16.30;40.00;;;;;;4977367;28;93811;-75
2022/03/08 15:06:38;;;;;;;4.47;4.05;;;16.20;39.50;;;;;;4976962;28;94506;-76
2022/03/08 15:09:09;;;;;;;5.82;4.10;;;15.90;39.50;;;;;;4958813;28;96291;-76
2022/03/08 15:11:38;;;;;;;6.35;4.18;;;15.70;41.00;;;;;;4976778;28;95438;-76
2022/03/08 15:14:04;;;;;;;7.30;4.32;;;15.00;41.90;;;;;;4958608;28;94647;-78
2022/03/08 15:16:30;;;;;;;7.90;4.47;;;16.00;41.70;;;;;;4977351;28;95213;-77
2022/03/08 15:18:59;;;;;;;6.95;4.43;;;16.00;40.60;;;;;;4958900;28;97819;-77
2022/03/08 15:21:25;;;;;;;7.75;5.00;;;16.20;40.90;;;;;;4958602;28;94542;-76
2022/03/08 15:23:52;;;;;;;8.43;4.82;;;17.20;40.00;;;;;;4976300;28;94605;-77
2022/03/08 15:26:19;;;;;;;5.28;4.53;;;17.00;39.80;;;;;;4976520;28;95352;-75
2022/03/08 15:28:47;;;;;;;6.82;5.68;;;17.30;39.50;;;;;;4977096;28;93985;-77
2022/03/08 15:31:19;;;;;;;6.57;5.32;;;16.60;39.30;;;;;;4976165;28;94523;-78
2022/03/08 15:33:45;;;;;;;7.10;6.00;;;16.00;40.70;;;;;;4977854;28;94394;-77
2022/03/08 15:36:14;;;;;;;7.35;5.50;;;16.10;39.80;;;;;;4975243;28;96188;-76
2022/03/08 15:38:40;;;;;;;6.82;5.30;;;16.30;40.20;;;;;;4975951;28;95953;-77
2022/03/08 15:41:06;;;;;;;5.97;5.00;;;16.70;39.90;;;;;;4974291;28;94595;-77
2022/03/08 15:43:32;;;;;;;5.90;5.13;;;16.30;39.60;;;;;;4978086;28;94478;-77
2022/03/08 15:46:00;;;;;;;7.30;5.32;;;16.80;39.40;;;;;;4977990;28;96217;-78
2022/03/08 15:48:26;;;;;;;7.65;6.18;;;16.90;39.30;;;;;;4978372;28;94616;-78
2022/03/08 15:50:54;;;;;;;8.35;5.55;;;16.50;39.60;;;;;;4977624;28;94796;-78
2022/03/08 15:53:20;;;;;;;8.68;6.25;;;16.80;39.90;;;;;;4978795;28;93696;-77
2022/03/08 15:55:46;;;;;;;8.63;6.45;;;16.80;40.20;;;;;;4978807;28;94436;-77
2022/03/08 15:58:15;;;;;;;6.72;5.82;;;16.00;40.20;;;;;;4960551;28;98133;-77
2022/03/08 16:00:49;;;;;;;7.22;6.03;;;15.70;41.40;;;;;;4959557;28;95545;-78
2022/03/08 16:03:15;;;;;;;9.30;5.55;;;15.60;41.20;;;;;;4959681;28;94554;-78
2022/03/08 16:05:44;;;;;;;10.68;5.63;;;15.20;41.90;;;;;;4959939;28;95095;-78
2022/03/08 16:08:11;;;;;;;7.28;5.32;;;14.80;41.90;;;;;;4977474;28;94608;-78
2022/03/08 16:13:38;;;;;;;7.75;5.30;;;14.50;42.70;;;;;;4977230;28;94461;-77
2022/03/08 16:16:05;;;;;;;9.80;5.78;;;13.30;44.20;;;;;;4977452;28;95202;-77
2022/03/08 16:18:36;;;;;;;9.32;5.72;;;13.20;45.80;;;;;;4977148;28;96017;-77
2022/03/08 16:21:04;;;;;;;10.02;5.68;;;13.10;44.60;;;;;;4958417;28;94805;-77
2022/03/08 16:23:32;;;;;;;6.40;5.30;;;13.10;45.20;;;;;;4976421;28;94571;-77
2022/03/08 16:26:01;;;;;;;9.00;5.55;;;13.00;45.20;;;;;;4974516;28;99408;-77
2022/03/08 16:28:30;;;;;;;9.20;5.60;;;13.20;45.70;;;;;;4976495;28;95738;-78
2022/03/08 16:30:55;;;;;;;9.75;5.78;;;12.70;45.80;;;;;;4975296;28;94778;-76
2022/03/08 16:33:24;;;;;;;7.90;5.68;;;12.20;47.80;;;;;;4974405;28;94570;-78
2022/03/08 16:35:50;;;;;;;16.45;6.10;;;11.70;47.50;;;;;;4975202;28;95383;-77
2022/03/08 16:38:15;;;;;;;7.82;5.43;;;11.00;48.70;;;;;;4977393;28;95189;-79
2022/03/08 16:40:41;;;;;;;26.33;15.98;;;10.40;50.60;;;;;;4961719;28;94554;-79
2022/03/08 16:43:08;;;;;;;15.35;10.25;;;9.70;51.70;;;;;;4977606;28;94008;-78
2022/03/08 16:45:37;;;;;;;67.65;36.78;;;9.30;52.70;;;;;;4963485;28;94796;-79
2022/03/08 16:48:03;;;;;;;13.13;9.20;;;8.90;53.40;;;;;;4977738;28;94366;-82
2022/03/08 16:50:29;;;;;;;17.33;11.10;;;8.60;54.80;;;;;;4958632;28;95376;-78
2022/03/08 16:52:58;;;;;;;14.20;11.18;;;8.30;55.40;;;;;;4962083;28;94523;-78
2022/03/08 16:55:28;;;;;;;9.25;6.28;;;8.10;55.80;;;;;;4939161;28;97847;-79
2022/03/08 16:57:54;;;;;;;8.35;5.60;;;7.80;56.90;;;;;;4936676;28;95017;-78
2022/03/08 17:00:20;;;;;;;8.80;5.60;;;7.50;58.40;;;;;;4948085;28;94857;-78
2022/03/08 17:02:45;;;;;;;9.98;5.20;;;7.40;58.20;;;;;;4957093;28;94503;-77
2022/03/08 17:05:11;;;;;;;9.63;5.35;;;7.20;59.30;;;;;;4938151;28;98303;-77
2022/03/08 17:07:40;;;;;;;8.50;5.88;;;7.00;58.60;;;;;;4937083;28;96795;-78
2022/03/08 17:10:07;;;;;;;9.45;5.72;;;6.90;59.70;;;;;;4956505;28;94563;-77
2022/03/08 17:12:33;;;;;;;10.43;6.30;;;6.70;59.90;;;;;;4940517;28;94607;-79
2022/03/08 17:14:59;;;;;;;11.80;6.72;;;6.50;60.10;;;;;;4958163;28;97450;-79
2022/03/08 17:17:24;;;;;;;13.05;6.07;;;6.30;61.50;;;;;;4962117;28;95880;-79
2022/03/08 17:19:50;;;;;;;9.15;5.63;;;6.00;62.70;;;;;;4964833;28;94476;-80
2022/03/08 17:22:15;;;;;;;10.60;6.43;;;5.70;65.80;;;;;;4941437;28;94526;-79
2022/03/08 17:24:41;;;;;;;9.80;6.22;;;5.40;66.40;;;;;;4959496;28;95331;-78
2022/03/08 17:27:09;;;;;;;11.52;5.60;;;5.20;67.10;;;;;;4958749;28;94482;-76
2022/03/08 17:29:38;;;;;;;11.38;6.30;;;5.10;67.30;;;;;;4936996;28;94670;-78
2022/03/08 17:32:05;;;;;;;15.48;6.28;;;4.90;67.80;;;;;;4957890;28;93608;-78
2022/03/08 17:34:30;;;;;;;11.38;6.50;;;4.80;68.80;;;;;;4957606;28;94423;-78
2022/03/08 17:36:56;;;;;;;10.77;6.72;;;4.60;69.30;;;;;;4940845;28;97843;-79
2022/03/08 17:39:22;;;;;;;13.23;7.50;;;4.40;71.20;;;;;;4957556;28;95381;-78
2022/03/08 17:41:47;;;;;;;11.45;7.50;;;4.20;72.10;;;;;;4955326;28;94698;-78
2022/03/08 17:44:13;;;;;;;20.70;10.32;;;4.00;73.90;;;;;;4936443;28;96890;-76
2022/03/08 17:46:38;;;;;;;18.92;10.88;;;3.80;73.20;;;;;;4953685;28;94426;-80
2022/03/08 17:49:04;;;;;;;16.85;9.77;;;3.70;73.90;;;;;;4957066;28;94516;-82
2022/03/08 17:51:29;;;;;;;17.40;8.93;;;3.50;74.60;;;;;;4943770;28;94535;-80
2022/03/08 17:53:55;;;;;;;18.83;9.70;;;3.40;76.10;;;;;;4959301;28;95051;-80